createdAt,value
2018-07-23T00:00:18.162Z,81.50
2018-07-23T00:02:20.251Z,81.10
2018-07-23T00:04:22.398Z,81.20
2018-07-23T00:06:24.534Z,81.10
2018-07-23T00:08:26.626Z,81.70
2018-07-23T00:10:28.754Z,82.00
2018-07-23T00:12:30.874Z,81.80
2018-07-23T00:14:33.005Z,81.40
2018-07-23T00:16:35.104Z,81.20
2018-07-23T00:18:37.198Z,81.70
2018-07-23T00:20:39.305Z,81.50
2018-07-23T00:22:41.442Z,81.60
2018-07-23T00:24:43.630Z,81.50
2018-07-23T00:26:45.744Z,81.60
2018-07-23T00:28:47.874Z,81.20
2018-07-23T00:30:49.991Z,81.20
2018-07-23T00:32:52.077Z,81.20
2018-07-23T00:34:54.207Z,81.10
2018-07-23T00:36:56.338Z,81.10
2018-07-23T00:38:58.442Z,81.10
2018-07-23T00:41:00.826Z,81.00
2018-07-23T00:43:02.945Z,81.20
2018-07-23T00:45:05.181Z,81.20
2018-07-23T00:47:07.333Z,81.30
2018-07-23T00:49:09.482Z,81.00
2018-07-23T00:51:11.622Z,81.10
2018-07-23T00:53:13.751Z,81.00
2018-07-23T00:55:15.886Z,81.00
2018-07-23T00:57:18.027Z,81.10
2018-07-23T00:59:20.150Z,81.40
2018-07-23T01:01:22.271Z,81.50
2018-07-23T01:03:24.378Z,81.50
2018-07-23T01:05:26.733Z,81.50
2018-07-23T01:07:28.854Z,81.60
2018-07-23T01:09:30.990Z,81.60
2018-07-23T01:11:33.138Z,81.80
2018-07-23T01:13:35.528Z,81.60
2018-07-23T01:15:37.640Z,81.60
2018-07-23T01:17:39.753Z,81.70
2018-07-23T01:19:41.866Z,82.00
2018-07-23T01:21:44.042Z,81.80
2018-07-23T01:23:46.178Z,81.90
2018-07-23T01:25:48.286Z,81.80
2018-07-23T01:27:50.402Z,81.80
2018-07-23T01:29:52.532Z,81.60
2018-07-23T01:31:54.622Z,81.30
2018-07-23T01:33:56.733Z,81.70
2018-07-23T01:35:58.878Z,81.90
2018-07-23T01:38:01.289Z,81.70
2018-07-23T01:40:04.439Z,81.90
2018-07-23T01:42:06.541Z,81.70
2018-07-23T01:44:08.657Z,82.00
2018-07-23T01:46:10.779Z,81.70
2018-07-23T01:48:12.874Z,82.00
2018-07-23T01:50:14.976Z,82.00
2018-07-23T01:52:17.095Z,82.40
2018-07-23T01:54:19.313Z,82.70
2018-07-23T01:56:21.714Z,82.50
2018-07-23T01:58:23.821Z,82.80
2018-07-23T02:00:25.942Z,84.00
2018-07-23T02:02:28.070Z,83.80
2018-07-23T02:04:32.403Z,83.70
2018-07-23T02:06:34.535Z,83.70
2018-07-23T02:08:36.916Z,83.90
2018-07-23T02:10:39.045Z,84.00
2018-07-23T02:12:41.933Z,84.30
2018-07-23T02:14:44.052Z,84.40
2018-07-23T02:16:46.186Z,84.10
2018-07-23T02:18:48.320Z,83.90
2018-07-23T02:20:50.643Z,83.90
2018-07-23T02:22:52.774Z,84.30
2018-07-23T02:24:54.904Z,84.60
2018-07-23T02:26:57.038Z,84.60
2018-07-23T02:28:59.175Z,84.50
2018-07-23T02:31:01.319Z,85.40
2018-07-23T02:33:03.428Z,85.30
2018-07-23T02:35:05.570Z,84.60
2018-07-23T02:37:07.704Z,85.30
2018-07-23T02:39:10.489Z,86.50
2018-07-23T02:41:12.635Z,86.50
2018-07-23T02:43:14.782Z,87.50
2018-07-23T02:45:16.899Z,86.90
2018-07-23T02:47:19.015Z,85.60
2018-07-23T02:49:21.114Z,86.70
2018-07-23T02:51:23.218Z,85.30
2018-07-23T02:53:25.394Z,87.80
2018-07-23T02:55:27.506Z,86.90
2018-07-23T02:57:29.607Z,87.00
2018-07-23T02:59:32.082Z,87.40
2018-07-23T03:01:34.159Z,87.20
2018-07-23T03:03:36.268Z,86.30
2018-07-23T03:05:38.407Z,86.40
2018-07-23T03:07:40.539Z,85.90
2018-07-23T03:09:42.680Z,85.00
2018-07-23T03:11:44.843Z,84.80
2018-07-23T03:13:47.202Z,84.50
2018-07-23T03:15:49.347Z,85.80
2018-07-23T03:17:51.471Z,87.10
2018-07-23T03:19:53.579Z,86.40
2018-07-23T03:21:55.784Z,85.70
2018-07-23T03:23:57.865Z,85.00
2018-07-23T03:25:59.971Z,84.70
2018-07-23T03:28:02.062Z,84.50
2018-07-23T03:30:04.264Z,84.60
2018-07-23T03:32:06.390Z,84.80
2018-07-23T03:34:08.530Z,84.90
2018-07-23T03:36:10.719Z,84.60
2018-07-23T03:38:12.822Z,84.80
2018-07-23T03:40:14.950Z,84.60
2018-07-23T03:42:17.090Z,84.70
2018-07-23T03:44:19.326Z,84.60
2018-07-23T03:46:21.439Z,84.40
2018-07-23T03:48:23.629Z,84.60
2018-07-23T03:50:25.741Z,85.20
2018-07-23T03:52:27.899Z,85.40
2018-07-23T03:54:30.190Z,84.80
2018-07-23T03:56:32.338Z,84.60
2018-07-23T03:58:34.508Z,84.50
2018-07-23T04:00:36.825Z,85.00
2018-07-23T04:02:38.950Z,85.00
2018-07-23T04:04:41.047Z,85.10
2018-07-23T04:06:43.514Z,85.00
2018-07-23T04:08:45.639Z,85.10
2018-07-23T04:10:47.846Z,85.40
2018-07-23T04:12:49.903Z,85.80
2018-07-23T04:14:52.038Z,85.20
2018-07-23T04:16:54.173Z,85.10
2018-07-23T04:18:56.299Z,84.60
2018-07-23T04:20:58.498Z,85.00
2018-07-23T04:23:00.643Z,85.10
2018-07-23T04:25:02.762Z,85.00
2018-07-23T04:27:04.949Z,84.80
2018-07-23T04:29:07.127Z,84.40
2018-07-23T04:31:09.274Z,85.00
2018-07-23T04:33:11.604Z,84.80
2018-07-23T04:35:13.830Z,85.30
2018-07-23T04:37:15.954Z,85.70
2018-07-23T04:39:18.119Z,85.50
2018-07-23T04:41:20.234Z,85.50
2018-07-23T04:43:22.370Z,85.30
2018-07-23T04:45:24.654Z,86.30
2018-07-23T04:47:26.807Z,87.70
2018-07-23T04:49:29.080Z,87.30
2018-07-23T04:51:31.242Z,87.00
2018-07-23T04:53:33.397Z,86.10
2018-07-23T04:55:35.528Z,86.20
2018-07-23T04:57:37.682Z,86.30
2018-07-23T04:59:39.814Z,86.70
2018-07-23T05:01:41.922Z,86.00
2018-07-23T05:03:44.065Z,86.00
2018-07-23T05:05:46.170Z,86.90
2018-07-23T05:07:48.278Z,89.20
2018-07-23T05:09:50.431Z,87.60
2018-07-23T05:11:52.541Z,86.10
2018-07-23T05:13:54.665Z,85.20
2018-07-23T05:15:56.762Z,85.50
2018-07-23T05:17:58.874Z,86.20
2018-07-23T05:20:01.034Z,85.70
2018-07-23T05:22:03.185Z,86.40
2018-07-23T05:24:05.314Z,86.30
2018-07-23T05:26:07.512Z,86.50
2018-07-23T05:28:09.638Z,86.60
2018-07-23T05:30:11.798Z,86.20
2018-07-23T05:32:13.919Z,86.40
2018-07-23T05:34:16.053Z,87.60
2018-07-23T05:36:18.196Z,86.90
2018-07-23T05:38:20.354Z,87.30
2018-07-23T05:40:22.482Z,87.30
2018-07-23T05:42:24.582Z,87.10
2018-07-23T05:44:26.747Z,85.90
2018-07-23T05:46:28.851Z,84.90
2018-07-23T05:48:30.954Z,84.70
2018-07-23T05:50:33.066Z,84.50
2018-07-23T05:52:35.266Z,84.30
2018-07-23T05:54:37.394Z,84.20
2018-07-23T05:56:39.547Z,84.10
2018-07-23T05:58:41.691Z,84.40
2018-07-23T06:00:43.802Z,84.20
2018-07-23T06:02:45.923Z,83.90
2018-07-23T06:04:48.210Z,84.00
2018-07-23T06:06:50.466Z,84.00
2018-07-23T06:08:52.530Z,84.20
2018-07-23T06:10:54.676Z,84.50
2018-07-23T06:12:56.838Z,84.40
2018-07-23T06:14:59.297Z,83.80
2018-07-23T06:17:01.470Z,83.70
2018-07-23T06:19:03.590Z,83.70
2018-07-23T06:21:05.757Z,83.70
2018-07-23T06:23:07.893Z,83.50
2018-07-23T06:25:10.034Z,83.40
2018-07-23T06:27:12.183Z,82.80
2018-07-23T06:29:14.343Z,82.70
2018-07-23T06:31:16.806Z,82.70
2018-07-23T06:33:18.990Z,82.60
2018-07-23T06:35:21.113Z,82.60
2018-07-23T06:37:23.266Z,83.00
2018-07-23T06:39:25.738Z,83.70
2018-07-23T06:41:27.931Z,83.00
2018-07-23T06:43:30.083Z,82.50
2018-07-23T06:45:32.285Z,82.50
2018-07-23T06:47:34.434Z,82.00
2018-07-23T06:49:36.572Z,82.10
2018-07-23T06:51:38.886Z,81.60
2018-07-23T06:53:41.243Z,81.20
2018-07-23T06:55:44.353Z,81.30
2018-07-23T06:57:46.554Z,81.70
2018-07-23T06:59:48.955Z,81.60
2018-07-23T07:01:51.082Z,81.60
2018-07-23T07:03:53.242Z,81.60
2018-07-23T07:05:55.399Z,81.70
2018-07-23T07:07:57.725Z,81.70
2018-07-23T07:09:59.902Z,81.40
2018-07-23T07:12:02.106Z,81.10
2018-07-23T07:14:04.408Z,80.60
2018-07-23T07:16:06.883Z,80.40
2018-07-23T07:18:09.070Z,79.90
2018-07-23T07:20:11.186Z,79.70
2018-07-23T07:22:13.325Z,79.40
2018-07-23T07:24:15.474Z,78.80
2018-07-23T07:26:17.636Z,78.50
2018-07-23T07:28:19.802Z,78.60
2018-07-23T07:30:21.983Z,78.80
2018-07-23T07:32:24.174Z,78.10
2018-07-23T07:34:26.352Z,77.70
2018-07-23T07:36:28.490Z,77.90
2018-07-23T07:38:30.657Z,77.40
2018-07-23T07:40:32.806Z,77.00
2018-07-23T07:42:34.942Z,76.50
2018-07-23T07:44:37.090Z,76.80
2018-07-23T07:46:40.086Z,77.00
2018-07-23T07:48:42.251Z,77.10
2018-07-23T07:50:44.406Z,76.20
2018-07-23T07:52:46.531Z,78.00
2018-07-23T07:54:48.670Z,77.90
2018-07-23T07:56:50.802Z,77.40
2018-07-23T07:58:52.980Z,76.30
2018-07-23T08:00:55.166Z,75.60
2018-07-23T08:02:57.358Z,75.60
2018-07-23T08:04:59.493Z,74.80
2018-07-23T08:07:01.687Z,73.80
2018-07-23T08:09:06.082Z,73.60
2018-07-23T08:11:08.447Z,74.70
2018-07-23T08:13:10.658Z,75.20
2018-07-23T08:15:12.812Z,76.30
2018-07-23T08:17:14.985Z,78.00
2018-07-23T08:19:17.206Z,78.00
2018-07-23T08:21:19.354Z,78.20
2018-07-23T08:23:21.508Z,78.00
2018-07-23T08:25:23.795Z,77.20
2018-07-23T08:27:25.941Z,76.70
2018-07-23T08:29:28.365Z,75.70
2018-07-23T08:31:30.602Z,75.90
2018-07-23T08:33:32.762Z,75.70
2018-07-23T08:35:35.238Z,76.80
2018-07-23T08:37:37.386Z,76.60
2018-07-23T08:39:39.570Z,76.80
2018-07-23T08:41:41.726Z,76.70
2018-07-23T08:43:43.936Z,76.10
2018-07-23T08:45:46.138Z,75.50
2018-07-23T08:47:48.334Z,75.40
2018-07-23T08:49:50.478Z,74.30
2018-07-23T08:51:52.630Z,75.40
2018-07-23T08:53:54.774Z,75.00
2018-07-23T08:55:57.219Z,74.90
2018-07-23T08:57:59.332Z,75.20
2018-07-23T09:00:01.638Z,76.40
2018-07-23T09:02:03.770Z,77.40
2018-07-23T09:04:05.953Z,76.70
2018-07-23T09:06:08.174Z,75.70
2018-07-23T09:08:10.302Z,74.30
2018-07-23T09:10:12.436Z,75.00
2018-07-23T09:12:14.571Z,74.60
2018-07-23T09:14:16.706Z,75.40
2018-07-23T09:16:18.867Z,75.00
2018-07-23T09:18:21.020Z,75.10
2018-07-23T09:20:23.284Z,75.10
2018-07-23T09:22:25.430Z,73.80
2018-07-23T09:24:27.541Z,72.80
2018-07-23T09:26:29.691Z,71.70
2018-07-23T09:28:31.835Z,70.90
2018-07-23T09:30:39.536Z,69.90
2018-07-23T09:32:41.663Z,70.20
2018-07-23T09:34:43.808Z,68.50
2018-07-23T09:36:45.967Z,68.60
2018-07-23T09:38:48.150Z,69.50
2018-07-23T09:40:50.650Z,70.80
2018-07-23T09:42:53.054Z,69.00
2018-07-23T09:44:55.177Z,68.60
2018-07-23T09:46:57.322Z,68.60
2018-07-23T09:48:59.482Z,67.60
2018-07-23T09:51:01.655Z,68.40
2018-07-23T09:53:03.802Z,70.10
2018-07-23T09:55:06.887Z,70.40
2018-07-23T09:57:09.318Z,68.80
2018-07-23T09:59:11.982Z,68.30
2018-07-23T10:01:17.198Z,69.40
2018-07-23T10:03:19.354Z,68.00
2018-07-23T10:05:21.494Z,69.00
2018-07-23T10:07:23.615Z,67.70
2018-07-23T10:09:25.999Z,67.80
2018-07-23T10:11:28.178Z,71.00
2018-07-23T10:13:30.346Z,71.20
2018-07-23T10:15:32.530Z,70.00
2018-07-23T10:17:34.899Z,68.80
2018-07-23T10:19:37.118Z,65.90
2018-07-23T10:21:46.227Z,65.40
2018-07-23T10:23:48.479Z,65.00
2018-07-23T10:25:50.647Z,64.10
2018-07-23T10:27:52.847Z,62.70
2018-07-23T10:29:55.016Z,63.00
2018-07-23T10:31:57.212Z,64.30
2018-07-23T10:33:59.366Z,64.30
2018-07-23T10:36:01.503Z,64.00
2018-07-23T10:38:04.151Z,62.60
2018-07-23T10:40:06.432Z,62.60
2018-07-23T10:42:08.610Z,61.90
2018-07-23T10:44:11.354Z,61.30
2018-07-23T10:46:13.510Z,60.30
2018-07-23T10:48:15.759Z,60.50
2018-07-23T10:50:17.915Z,61.70
2018-07-23T10:52:20.163Z,61.50
2018-07-23T10:54:22.274Z,62.60
2018-07-23T10:56:24.450Z,62.90
2018-07-23T10:58:26.718Z,63.00
2018-07-23T11:00:28.855Z,63.70
2018-07-23T11:02:31.018Z,61.50
2018-07-23T11:04:33.338Z,60.30
2018-07-23T11:06:35.474Z,59.00
2018-07-23T11:08:37.834Z,57.70
2018-07-23T11:10:40.386Z,58.10
2018-07-23T11:12:42.879Z,59.60
2018-07-23T11:14:45.015Z,62.80
2018-07-23T11:16:47.227Z,63.50
2018-07-23T11:18:49.439Z,63.90
2018-07-23T11:20:51.585Z,63.40
2018-07-23T11:22:53.717Z,64.30
2018-07-23T11:24:55.947Z,62.90
2018-07-23T11:26:58.069Z,61.20
2018-07-23T11:29:00.218Z,60.50
2018-07-23T11:31:02.382Z,61.10
2018-07-23T11:33:04.530Z,61.30
2018-07-23T11:35:06.987Z,60.70
2018-07-23T11:37:09.166Z,60.80
2018-07-23T11:39:11.671Z,59.50
2018-07-23T11:41:13.798Z,59.70
2018-07-23T11:43:15.975Z,59.20
2018-07-23T11:45:18.175Z,59.90
2018-07-23T11:47:20.580Z,60.30
2018-07-23T11:49:22.714Z,60.70
2018-07-23T11:51:24.872Z,59.70
2018-07-23T11:53:27.101Z,60.90
2018-07-23T11:55:29.162Z,60.80
2018-07-23T11:57:31.306Z,61.50
2018-07-23T11:59:33.466Z,62.60
2018-07-23T12:01:35.753Z,61.70
2018-07-23T12:03:37.882Z,61.50
2018-07-23T12:05:40.026Z,62.10
2018-07-23T12:07:42.223Z,62.40
2018-07-23T12:09:44.613Z,61.80
2018-07-23T12:11:46.829Z,61.60
2018-07-23T12:13:48.935Z,61.70
2018-07-23T12:15:51.096Z,60.60
2018-07-23T12:17:53.262Z,60.20
2018-07-23T12:19:55.533Z,60.00
2018-07-23T12:21:57.650Z,60.60
2018-07-23T12:23:59.802Z,60.10
2018-07-23T12:26:02.078Z,60.00
2018-07-23T12:28:04.386Z,59.40
2018-07-23T12:30:06.671Z,61.00
2018-07-23T12:32:08.834Z,61.80
2018-07-23T12:34:10.960Z,63.20
2018-07-23T12:36:13.118Z,62.20
2018-07-23T12:38:15.414Z,62.00
2018-07-23T12:40:17.560Z,62.10
2018-07-23T12:42:19.691Z,61.30
2018-07-23T12:44:21.797Z,61.20
2018-07-23T12:46:23.917Z,61.00
2018-07-23T12:48:26.051Z,61.20
2018-07-23T12:50:28.191Z,61.70
2018-07-23T12:52:30.433Z,61.20
2018-07-23T12:54:32.554Z,60.30
2018-07-23T12:56:34.698Z,59.40
2018-07-23T12:58:37.005Z,59.30
2018-07-23T13:00:39.217Z,60.20
2018-07-23T13:02:41.374Z,61.30
2018-07-23T13:04:43.506Z,61.60
2018-07-23T13:06:45.685Z,61.80
2018-07-23T13:08:47.790Z,61.80
2018-07-23T13:10:50.062Z,61.20
2018-07-23T13:12:52.194Z,61.40
2018-07-23T13:14:54.425Z,61.00
2018-07-23T13:16:56.570Z,59.00
2018-07-23T13:18:58.713Z,57.90
2018-07-23T13:21:00.939Z,58.70
2018-07-23T13:23:03.099Z,59.80
2018-07-23T13:25:05.264Z,60.40
2018-07-23T13:27:07.430Z,61.30
2018-07-23T13:29:09.702Z,62.30
2018-07-23T13:31:11.886Z,62.40
2018-07-23T13:33:14.038Z,62.30
2018-07-23T13:35:16.214Z,62.40
2018-07-23T13:37:18.362Z,61.90
2018-07-23T13:39:20.773Z,63.30
2018-07-23T13:41:22.934Z,64.90
2018-07-23T13:43:25.087Z,64.70
2018-07-23T13:45:27.233Z,63.20
2018-07-23T13:47:29.442Z,62.40
2018-07-23T13:49:31.626Z,60.70
2018-07-23T13:51:34.112Z,59.70
2018-07-23T13:53:36.310Z,58.30
2018-07-23T13:55:38.463Z,55.20
2018-07-23T13:57:40.613Z,52.70
2018-07-23T13:59:42.743Z,53.10
2018-07-23T14:01:44.882Z,54.60
2018-07-23T14:03:47.030Z,56.00
2018-07-23T14:05:49.162Z,57.50
2018-07-23T14:07:51.588Z,57.20
2018-07-23T14:09:53.777Z,54.10
2018-07-23T14:11:55.968Z,51.60
2018-07-23T14:13:58.290Z,49.00
2018-07-23T14:16:00.471Z,47.50
2018-07-23T14:18:02.853Z,46.60
2018-07-23T14:20:05.048Z,47.50
2018-07-23T14:22:07.202Z,47.20
2018-07-23T14:24:09.389Z,48.40
2018-07-23T14:26:11.550Z,48.20
2018-07-23T14:28:13.691Z,47.30
2018-07-23T14:30:15.894Z,47.20
2018-07-23T14:32:18.042Z,46.80
2018-07-23T14:34:20.593Z,45.90
2018-07-23T14:36:22.730Z,46.20
2018-07-23T14:38:24.893Z,46.70
2018-07-23T14:40:27.026Z,46.60
2018-07-23T14:42:29.286Z,47.00
2018-07-23T14:44:31.513Z,47.10
2018-07-23T14:46:33.645Z,46.80
2018-07-23T14:48:36.203Z,47.90
2018-07-23T14:50:38.906Z,48.00
2018-07-23T14:52:41.064Z,48.80
2018-07-23T14:54:43.218Z,50.50
2018-07-23T14:56:45.367Z,51.50
2018-07-23T14:58:47.506Z,52.30
2018-07-23T15:00:49.687Z,52.10
2018-07-23T15:02:51.838Z,52.80
2018-07-23T15:04:53.990Z,53.70
2018-07-23T15:06:56.142Z,53.70
2018-07-23T15:08:58.320Z,54.30
2018-07-23T15:11:00.479Z,54.50
2018-07-23T15:13:02.682Z,55.10
2018-07-23T15:15:04.838Z,55.60
2018-07-23T15:17:06.970Z,55.90
2018-07-23T15:19:09.098Z,56.20
2018-07-23T15:21:11.326Z,56.30
2018-07-23T15:23:13.454Z,57.20
2018-07-23T15:25:15.594Z,57.50
2018-07-23T15:27:17.956Z,56.50
2018-07-23T15:29:20.087Z,56.60
2018-07-23T15:31:22.221Z,57.10
2018-07-23T15:33:24.386Z,57.30
2018-07-23T15:35:26.525Z,56.90
2018-07-23T15:37:28.662Z,56.90
2018-07-23T15:39:30.775Z,57.10
2018-07-23T15:41:32.911Z,56.90
2018-07-23T15:43:35.079Z,57.40
2018-07-23T15:45:37.340Z,57.80
2018-07-23T15:47:39.358Z,58.20
2018-07-23T15:49:41.522Z,58.70
2018-07-23T15:51:43.662Z,58.00
2018-07-23T15:53:46.762Z,58.30
2018-07-23T15:55:48.935Z,58.20
2018-07-23T15:57:51.090Z,58.30
2018-07-23T15:59:53.234Z,58.70
2018-07-23T16:01:55.354Z,58.50
2018-07-23T16:03:57.770Z,58.90
2018-07-23T16:05:59.954Z,60.00
2018-07-23T16:08:02.082Z,59.90
2018-07-23T16:10:04.230Z,59.40
2018-07-23T16:12:06.562Z,59.70
2018-07-23T16:14:08.705Z,59.70
2018-07-23T16:16:10.958Z,60.00
2018-07-23T16:18:13.134Z,59.90
2018-07-23T16:20:15.392Z,59.80
2018-07-23T16:22:20.408Z,59.80
2018-07-23T16:24:22.622Z,60.10
2018-07-23T16:26:24.786Z,61.00
2018-07-23T16:28:26.926Z,61.00
2018-07-23T16:30:29.039Z,60.60
2018-07-23T16:32:31.195Z,60.50
2018-07-23T16:34:33.325Z,60.50
2018-07-23T16:36:35.499Z,60.70
2018-07-23T16:38:37.631Z,61.10
2018-07-23T16:40:39.778Z,61.20
2018-07-23T16:42:41.975Z,61.10
2018-07-23T16:44:44.220Z,60.70
2018-07-23T16:46:46.465Z,60.90
2018-07-23T16:48:48.677Z,61.20
2018-07-23T16:50:50.876Z,62.00
2018-07-23T16:52:53.214Z,62.20
2018-07-23T16:54:55.428Z,61.70
2018-07-23T16:56:57.636Z,62.30
2018-07-23T16:58:59.846Z,62.30
2018-07-23T17:01:02.051Z,62.50
2018-07-23T17:03:04.361Z,62.10
2018-07-23T17:05:06.564Z,61.80
2018-07-23T17:07:09.042Z,61.90
2018-07-23T17:09:11.971Z,62.00
2018-07-23T17:11:14.172Z,61.90
2018-07-23T17:13:16.387Z,61.80
2018-07-23T17:15:18.575Z,61.80
2018-07-23T17:17:20.747Z,61.90
2018-07-23T17:19:23.059Z,62.60
2018-07-23T17:21:25.228Z,62.60
2018-07-23T17:23:27.475Z,62.60
2018-07-23T17:25:29.633Z,62.40
2018-07-23T17:27:31.869Z,62.30
2018-07-23T17:29:35.805Z,62.40
2018-07-23T17:31:37.969Z,62.10
2018-07-23T17:33:40.093Z,62.20
2018-07-23T17:35:42.337Z,62.10
2018-07-23T17:37:44.641Z,62.30
2018-07-23T17:41:16.494Z,62.50
2018-07-23T17:43:18.841Z,62.60
2018-07-23T17:45:21.114Z,62.20
2018-07-23T17:47:23.299Z,62.40
2018-07-23T17:49:25.442Z,62.60
2018-07-23T17:51:27.685Z,62.80
2018-07-23T17:53:29.810Z,62.60
2018-07-23T17:55:31.949Z,62.60
2018-07-23T17:57:34.098Z,62.60
2018-07-23T17:59:36.210Z,62.70
2018-07-23T18:01:39.470Z,62.50
2018-07-23T18:03:41.854Z,62.40
2018-07-23T18:05:44.098Z,62.30
2018-07-23T18:07:46.208Z,62.20
2018-07-23T18:09:48.342Z,61.90
2018-07-23T18:11:50.506Z,61.80
2018-07-23T18:13:52.677Z,61.90
2018-07-23T18:15:55.023Z,61.90
2018-07-23T18:17:57.178Z,61.90
2018-07-23T18:19:59.544Z,61.90
2018-07-23T18:22:01.682Z,61.80
2018-07-23T18:24:04.522Z,61.80
2018-07-23T18:26:06.762Z,61.80
2018-07-23T18:28:08.954Z,62.30
2018-07-23T18:30:11.089Z,62.10
2018-07-23T18:32:13.248Z,61.90
2018-07-23T18:34:15.446Z,62.00
2018-07-23T18:36:17.937Z,62.10
2018-07-23T18:38:20.099Z,62.50
2018-07-23T18:40:22.187Z,62.30
2018-07-23T18:42:24.416Z,62.50
2018-07-23T18:44:26.583Z,62.70
2018-07-23T18:46:28.717Z,62.90
2018-07-23T18:49:43.368Z,62.80
2018-07-23T18:51:48.337Z,62.90
2018-07-23T18:53:50.466Z,63.10
2018-07-23T18:55:52.790Z,63.60
2018-07-23T18:57:54.913Z,63.60
2018-07-23T18:59:57.369Z,63.80
2018-07-23T19:02:00.634Z,64.00
2018-07-23T19:04:02.750Z,64.00
2018-07-23T19:06:04.862Z,64.30
2018-07-23T19:08:07.110Z,64.20
2018-07-23T19:10:09.442Z,64.50
2018-07-23T19:12:11.937Z,65.00
2018-07-23T19:14:14.564Z,65.40
2018-07-23T19:16:16.667Z,65.60
2018-07-23T19:18:18.805Z,65.70
2018-07-23T19:20:20.983Z,66.10
2018-07-23T19:22:23.065Z,66.30
2018-07-23T19:24:25.474Z,66.60
2018-07-23T19:26:28.142Z,66.90
2018-07-23T19:28:30.385Z,67.00
2018-07-23T19:30:32.524Z,66.80
2018-07-23T19:32:34.910Z,66.90
2018-07-23T19:34:37.053Z,67.00
2018-07-23T19:36:39.215Z,67.20
2018-07-23T19:38:41.371Z,67.70
2018-07-23T19:40:43.509Z,68.00
2018-07-23T19:42:45.618Z,68.40
2018-07-23T19:44:48.036Z,68.60
2018-07-23T19:46:50.180Z,68.70
2018-07-23T19:48:52.313Z,68.70
2018-07-23T19:50:54.522Z,69.00
2018-07-23T19:52:56.676Z,69.10
2018-07-23T19:54:58.974Z,69.10
2018-07-23T19:57:01.097Z,69.40
2018-07-23T19:59:03.478Z,69.30
2018-07-23T20:01:05.657Z,69.00
2018-07-23T20:03:07.773Z,69.10
2018-07-23T20:05:09.885Z,69.10
2018-07-23T20:07:12.279Z,69.30
2018-07-23T20:09:14.450Z,69.30
2018-07-23T20:11:16.850Z,69.40
2018-07-23T20:13:19.207Z,69.60
2018-07-23T20:15:21.313Z,69.60
2018-07-23T20:17:23.413Z,69.60
2018-07-23T20:19:25.663Z,69.90
2018-07-23T20:21:27.714Z,70.00
2018-07-23T20:23:29.842Z,70.00
2018-07-23T20:25:31.994Z,70.20
2018-07-23T20:27:34.253Z,70.30
2018-07-23T20:29:36.376Z,70.40
2018-07-23T20:31:38.479Z,70.60
2018-07-23T20:33:40.617Z,70.80
2018-07-23T20:35:42.811Z,70.90
2018-07-23T20:37:44.910Z,70.80
2018-07-23T20:39:47.163Z,70.90
2018-07-23T20:41:49.353Z,70.90
2018-07-23T20:43:51.462Z,71.10
2018-07-23T20:45:53.963Z,71.10
2018-07-23T20:47:56.507Z,71.20
2018-07-23T20:49:58.607Z,71.20
2018-07-23T20:52:00.715Z,71.30
2018-07-23T20:54:02.866Z,71.40
2018-07-23T20:56:05.202Z,71.40
2018-07-23T20:58:07.607Z,71.60
2018-07-23T21:00:09.766Z,71.50
2018-07-23T21:02:11.930Z,71.40
2018-07-23T21:04:14.270Z,71.70
2018-07-23T21:06:16.411Z,71.90
2018-07-23T21:08:18.548Z,72.00
2018-07-23T21:10:20.705Z,72.20
2018-07-23T21:12:22.846Z,72.40
2018-07-23T21:14:25.006Z,72.40
2018-07-23T21:16:27.569Z,72.50
2018-07-23T21:18:29.750Z,72.50
2018-07-23T21:20:31.918Z,72.60
2018-07-23T21:22:34.087Z,72.60
2018-07-23T21:24:36.210Z,72.70
2018-07-23T21:26:38.672Z,72.80
2018-07-23T21:28:40.801Z,72.80
2018-07-23T21:30:42.991Z,72.90
2018-07-23T21:32:45.162Z,73.10
2018-07-23T21:34:47.274Z,73.10
2018-07-23T21:36:49.434Z,73.30
2018-07-23T21:38:51.550Z,73.40
2018-07-23T21:40:53.752Z,73.60
2018-07-23T21:42:55.911Z,73.50
2018-07-23T21:44:58.095Z,73.50
2018-07-23T21:47:00.261Z,73.40
2018-07-23T21:49:02.721Z,73.60
2018-07-23T21:51:04.867Z,73.90
2018-07-23T21:53:06.994Z,74.00
2018-07-23T21:55:09.158Z,74.10
2018-07-23T21:57:11.289Z,74.10
2018-07-23T21:59:13.409Z,74.10
2018-07-23T22:01:15.525Z,74.10
2018-07-23T22:03:17.706Z,74.00
2018-07-23T22:05:19.838Z,74.10
2018-07-23T22:07:21.942Z,74.10
2018-07-23T22:09:24.202Z,74.10
2018-07-23T22:11:26.362Z,74.30
2018-07-23T22:13:28.546Z,74.30
2018-07-23T22:15:30.637Z,74.30
2018-07-23T22:17:32.775Z,74.50
2018-07-23T22:19:34.919Z,74.50
2018-07-23T22:21:37.038Z,74.40
2018-07-23T22:23:39.180Z,74.60
2018-07-23T22:25:41.291Z,74.70
2018-07-23T22:27:43.394Z,74.90
2018-07-23T22:29:45.514Z,75.00
2018-07-23T22:31:47.630Z,74.90
2018-07-23T22:33:49.750Z,75.20
2018-07-23T22:35:51.885Z,75.20
2018-07-23T22:37:53.990Z,75.00
2018-07-23T22:39:56.090Z,74.90
2018-07-23T22:41:58.247Z,75.00
2018-07-23T22:44:00.313Z,75.10
2018-07-23T22:46:02.442Z,75.30
2018-07-23T22:48:04.698Z,75.40
2018-07-23T22:50:06.832Z,75.40
2018-07-23T22:52:08.923Z,75.80
2018-07-23T22:54:11.002Z,75.90
2018-07-23T22:56:13.167Z,76.10
2018-07-23T22:58:15.277Z,76.10
2018-07-23T23:00:17.374Z,76.00
2018-07-23T23:02:19.478Z,76.20
2018-07-23T23:04:21.610Z,76.40
2018-07-23T23:06:23.702Z,76.50
2018-07-23T23:08:25.822Z,76.70
2018-07-23T23:10:27.985Z,76.80
2018-07-23T23:12:30.097Z,76.80
2018-07-23T23:14:32.233Z,76.90
2018-07-23T23:16:34.394Z,76.90
2018-07-23T23:18:36.497Z,77.00
2018-07-23T23:20:38.611Z,77.00
2018-07-23T23:22:40.721Z,77.10
2018-07-23T23:24:42.969Z,77.10
2018-07-23T23:26:45.086Z,77.10
2018-07-23T23:28:47.185Z,77.10
2018-07-23T23:30:49.277Z,77.00
2018-07-23T23:32:51.396Z,77.20
2018-07-23T23:34:53.765Z,77.40
2018-07-23T23:36:55.899Z,77.40
2018-07-23T23:38:58.021Z,77.30
2018-07-23T23:41:00.143Z,77.10
2018-07-23T23:43:02.280Z,77.30
2018-07-23T23:45:05.341Z,77.40
2018-07-23T23:47:07.483Z,77.60
2018-07-23T23:49:09.590Z,77.70
2018-07-23T23:51:13.377Z,77.60
2018-07-23T23:53:15.638Z,77.40
2018-07-23T23:55:17.741Z,77.20
2018-07-23T23:57:19.858Z,77.10
2018-07-23T23:59:22.240Z,77.30
